Vernon, TX

4:20 PM CDT on September 01, 2015 (GMT -0500)
KD5PBR Turner Farm | | Change Station
CLOSE
Current Station
Personal Weather Station
Location: Odell, TX
Elevation: 1341 ft
Nearby Weather Stations

Elev 1341 ft 34.36 °N, 99.42 °W | Updated 43 seconds ago

Clear
Clear
97.3 °F
Feels Like 98 °F
N
9.0
Wind Variable Wind from SE
Gusts 13.0 mph

Today
High -- | Low -- °F
--% Chance of Precip.
Yesterday
High -- | Low -- °F
Precip. -- in
7:10 AM 8:04 PM
Waning Gibbous, 86% visible
Pressure 29.95 in
Visibility 10.0 miles
Clouds Scattered Clouds 8500 ft
Heat Index 98 °F
Dew Point 62 °F
Humidity 31%
Rainfall 0.00 in
Snow Depth Not available.
UV 5.0 out of 12
Pollen 9.60 out of 12
Air Quality Not available.
Flu Activity Not available.
METAR KF05 012115Z AUTO 18013G20KT 10SM SCT085 36/08 A2995 RMK AO1 T03620081
Pressure 29.95 in
Visibility 10.0 miles
Clouds Scattered Clouds 8500 ft
Heat Index 98 °F
Dew Point 62 °F
Humidity 31%
Rainfall 0.00 in
Snow Depth Not available.
UV 5.0 out of 12
Pollen 9.60 out of 12
Air Quality Not available.
Flu Activity Not available.
METAR KF05 012115Z AUTO 18013G20KT 10SM SCT085 36/08 A2995 RMK AO1 T03620081

10-Day Weather Forecast

×

Almanac

Astronomy

Sep. 01, 2015 Rise Set
Actual Time
Civil Twilight
Nautical Twilight
Astronomical Twilight
Moon
Length of Visible Light
Length of Day
Tomorrow will be .
, % of the Moon is Illuminated

Today's Extremes

State Highs State Lows

Community

WunderPhotos

Upload Photos

1,851,626 photos uploaded!

WunderBlogs® & News

Nearby

Air Quality

  Air Quality AQ Index Pollutant
Not available.

Snow Depth

Station Depth Elevation

Earthquake Activity

City Distance Mag. Time & Date
Minimum magnitude displayed is 2.5.

Coastal Water Temperatures

Place Temperature

Stations

Nearby Weather Stations

Station Location Temp. Windchill Dew Point Humidity Wind Precip. Elev Updated Type